Time;durP1;ratioP1;P1;durP2;ratioP2;P2;SDS_P1;SDS_P2;PMS_P1;PMS_P2;Temp;Humidity;BMP_temperature;BMP_pressure;BME280_temperature;BME280_humidity;BME280_pressure;Samples;Min_cycle;Max_cycle;Signal;HPM_P1;HPM_P2
2024/01/17 00:00:08;;;;;;;10.90;3.67;;;0.40;99.90;;;;;;5061811;28;20048;-68
2024/01/17 00:02:34;;;;;;;9.35;2.90;;;0.10;99.90;;;;;;5061389;28;20538;-67
2024/01/17 00:04:59;;;;;;;9.82;2.95;;;0.10;99.90;;;;;;5044790;28;20048;-68
2024/01/17 00:07:25;;;;;;;10.18;2.92;;;1.00;99.90;;;;;;5064029;28;21288;-67
2024/01/17 00:09:51;;;;;;;8.77;3.15;;;0.10;99.90;;;;;;5062164;28;20500;-68
2024/01/17 00:12:17;;;;;;;8.50;2.85;;;0.10;99.90;;;;;;5044540;28;20512;-69
2024/01/17 00:14:42;;;;;;;10.25;3.45;;;0.00;99.90;;;;;;5062158;28;20044;-68
2024/01/17 00:17:09;;;;;;;7.55;3.00;;;0.00;99.90;;;;;;5062304;28;20044;-68
2024/01/17 00:19:35;;;;;;;8.80;2.80;;;0.00;99.90;;;;;;5061979;28;20086;-67
2024/01/17 00:22:00;;;;;;;7.65;3.42;;;0.30;99.90;;;;;;5045881;28;20044;-67
2024/01/17 00:24:26;;;;;;;10.48;3.45;;;0.00;99.90;;;;;;5063484;28;20033;-69
2024/01/17 00:26:52;;;;;;;11.90;3.50;;;1.20;99.90;;;;;;5062763;28;20033;-69
2024/01/17 00:29:18;;;;;;;11.55;3.55;;;-0.10;99.90;;;;;;5061914;28;20453;-68
2024/01/17 00:31:44;;;;;;;12.27;3.40;;;0.00;99.90;;;;;;5060783;28;20436;-68
2024/01/17 00:34:10;;;;;;;8.85;3.70;;;-0.10;99.90;;;;;;5058442;28;20977;-68
2024/01/17 00:36:36;;;;;;;11.00;3.97;;;0.00;99.90;;;;;;5063459;28;20090;-68
2024/01/17 00:39:02;;;;;;;12.68;4.07;;;0.00;99.90;;;;;;5062400;28;20135;-67
2024/01/17 00:41:27;;;;;;;10.80;3.92;;;-0.10;99.90;;;;;;5061991;28;20045;-68
2024/01/17 00:43:53;;;;;;;9.38;3.70;;;-0.10;99.90;;;;;;5061605;28;20047;-68
2024/01/17 00:46:19;;;;;;;11.15;4.10;;;0.00;99.90;;;;;;5061005;28;20052;-68
2024/01/17 00:48:44;;;;;;;11.65;3.83;;;-0.10;99.90;;;;;;5061928;28;20071;-69
2024/01/17 00:51:20;;;;;;;7.93;3.45;;;0.00;99.90;;;;;;5061107;28;20068;-75
2024/01/17 00:53:46;;;;;;;10.00;3.85;;;0.00;99.90;;;;;;5061261;28;20051;-68
2024/01/17 00:56:12;;;;;;;10.55;3.92;;;0.00;99.90;;;;;;5061900;28;20040;-68
2024/01/17 00:58:38;;;;;;;9.60;3.75;;;0.00;99.90;;;;;;5061460;28;20079;-68
2024/01/17 01:01:04;;;;;;;10.30;4.38;;;0.50;99.90;;;;;;5061429;28;20047;-68
2024/01/17 01:03:30;;;;;;;10.63;4.35;;;0.20;99.90;;;;;;5061330;28;20117;-68
2024/01/17 01:05:55;;;;;;;10.73;4.40;;;0.90;99.90;;;;;;5044610;28;20497;-69
2024/01/17 01:08:21;;;;;;;9.95;4.40;;;0.00;99.90;;;;;;5064031;28;20048;-68
2024/01/17 01:10:47;;;;;;;12.20;4.88;;;0.00;99.90;;;;;;5062215;28;20040;-68
2024/01/17 01:13:12;;;;;;;10.73;4.65;;;0.00;99.90;;;;;;5043262;28;20098;-68
2024/01/17 01:15:38;;;;;;;10.85;4.75;;;0.00;99.90;;;;;;5061190;28;20040;-68
2024/01/17 01:18:04;;;;;;;10.98;4.63;;;0.00;99.90;;;;;;5054952;28;20049;-68
2024/01/17 01:20:30;;;;;;;11.10;5.00;;;0.00;99.90;;;;;;5043233;28;20033;-68
2024/01/17 01:22:56;;;;;;;9.07;4.22;;;0.00;99.90;;;;;;5060244;28;20055;-68
2024/01/17 01:25:22;;;;;;;10.93;4.70;;;0.60;99.90;;;;;;5061395;28;20040;-68
2024/01/17 01:27:47;;;;;;;11.65;4.93;;;0.00;99.90;;;;;;5062160;28;20579;-68
2024/01/17 01:30:13;;;;;;;12.35;4.80;;;0.10;99.90;;;;;;5060926;28;20044;-68
2024/01/17 01:32:39;;;;;;;11.18;4.70;;;0.10;99.90;;;;;;5043153;28;20475;-68
2024/01/17 01:35:05;;;;;;;10.52;4.57;;;0.20;99.90;;;;;;5060259;28;20524;-69
2024/01/17 01:37:30;;;;;;;10.50;4.43;;;0.10;99.90;;;;;;5061557;28;20292;-68
2024/01/17 01:39:56;;;;;;;13.60;4.90;;;0.30;99.90;;;;;;5064491;28;20045;-68
2024/01/17 01:42:22;;;;;;;12.65;4.88;;;0.10;99.90;;;;;;5064377;28;20803;-69
2024/01/17 01:44:49;;;;;;;13.13;5.13;;;0.10;99.90;;;;;;5064627;28;20055;-68
2024/01/17 01:47:16;;;;;;;12.30;5.07;;;0.10;99.90;;;;;;5062667;28;20092;-69
2024/01/17 01:49:42;;;;;;;12.45;5.03;;;0.10;99.90;;;;;;5061890;28;20059;-68
2024/01/17 01:52:09;;;;;;;11.43;5.38;;;0.10;99.90;;;;;;5066397;28;20493;-69
2024/01/17 01:54:36;;;;;;;14.27;4.90;;;0.10;99.90;;;;;;5063695;28;20549;-68
2024/01/17 01:57:03;;;;;;;11.88;4.85;;;0.10;99.90;;;;;;5046859;28;20534;-68
2024/01/17 01:59:29;;;;;;;15.57;5.93;;;0.10;99.90;;;;;;5064402;28;20524;-68
2024/01/17 02:01:55;;;;;;;15.07;5.47;;;0.10;99.90;;;;;;5064194;28;20052;-68
2024/01/17 02:04:21;;;;;;;15.95;5.68;;;0.10;99.90;;;;;;5064718;28;20433;-70
2024/01/17 02:06:49;;;;;;;11.65;5.45;;;0.10;99.90;;;;;;5042069;28;20041;-68
2024/01/17 02:09:15;;;;;;;11.95;5.28;;;0.00;99.90;;;;;;5046984;28;20059;-68
2024/01/17 02:11:41;;;;;;;14.48;5.65;;;0.10;99.90;;;;;;5064256;28;20759;-68
2024/01/17 02:14:06;;;;;;;14.05;5.63;;;1.10;99.90;;;;;;5063715;28;20093;-69
2024/01/17 02:16:33;;;;;;;14.48;6.25;;;0.10;99.90;;;;;;5065558;28;20678;-68
2024/01/17 02:18:59;;;;;;;12.85;6.55;;;0.10;99.90;;;;;;5064474;28;20413;-69
2024/01/17 02:21:26;;;;;;;16.23;6.70;;;0.70;99.90;;;;;;5063765;28;20045;-68
2024/01/17 02:23:52;;;;;;;14.10;6.20;;;0.00;99.90;;;;;;5063475;28;20481;-68
2024/01/17 02:26:18;;;;;;;14.60;6.25;;;0.10;99.90;;;;;;5062628;28;20568;-68
2024/01/17 02:28:44;;;;;;;14.15;6.35;;;0.00;99.90;;;;;;5047008;28;20052;-69
2024/01/17 02:31:11;;;;;;;12.82;5.88;;;0.00;99.90;;;;;;5063542;28;20702;-69
2024/01/17 02:33:37;;;;;;;11.07;6.32;;;0.00;99.90;;;;;;5063172;28;20036;-69
2024/01/17 02:36:03;;;;;;;14.05;6.72;;;0.00;99.90;;;;;;5062167;28;20047;-68
2024/01/17 02:38:29;;;;;;;18.20;6.40;;;0.00;99.90;;;;;;5063429;28;20045;-69
2024/01/17 02:40:54;;;;;;;14.93;6.72;;;0.00;99.90;;;;;;5062946;28;20591;-68
2024/01/17 02:43:21;;;;;;;14.50;7.43;;;0.00;99.90;;;;;;5062488;28;20052;-68
2024/01/17 02:45:47;;;;;;;13.75;6.30;;;0.30;99.90;;;;;;5063077;28;20048;-68
2024/01/17 02:48:13;;;;;;;16.50;7.00;;;0.40;99.90;;;;;;5063589;28;20461;-68
2024/01/17 02:50:39;;;;;;;18.27;7.20;;;0.00;99.90;;;;;;5063762;28;20048;-67
2024/01/17 02:53:06;;;;;;;15.38;7.00;;;0.60;99.90;;;;;;5063551;28;20044;-68
2024/01/17 02:55:32;;;;;;;19.48;7.30;;;0.00;99.90;;;;;;5059198;28;20044;-68
2024/01/17 02:57:59;;;;;;;12.63;6.63;;;-0.10;99.90;;;;;;5061131;28;20468;-68
2024/01/17 03:00:25;;;;;;;14.52;7.30;;;-0.10;99.90;;;;;;5062731;28;20409;-68
2024/01/17 03:02:51;;;;;;;16.50;7.53;;;-0.10;99.90;;;;;;5062674;28;20051;-69
2024/01/17 03:05:17;;;;;;;16.80;7.50;;;-0.10;99.90;;;;;;5062645;28;20044;-67
2024/01/17 03:07:43;;;;;;;16.67;6.72;;;-0.10;99.90;;;;;;5062920;28;20059;-68
2024/01/17 03:10:11;;;;;;;12.63;6.78;;;-0.10;99.90;;;;;;5063886;28;20052;-67
2024/01/17 03:12:37;;;;;;;11.35;6.20;;;-0.10;99.90;;;;;;5060809;28;20048;-67
2024/01/17 03:15:04;;;;;;;13.52;6.68;;;-0.10;99.90;;;;;;5063332;28;20694;-67
2024/01/17 03:17:30;;;;;;;14.57;7.25;;;-0.10;99.90;;;;;;5061612;28;20055;-68
2024/01/17 03:19:56;;;;;;;14.05;6.43;;;-0.10;99.90;;;;;;5062420;28;20048;-69
2024/01/17 03:22:22;;;;;;;13.88;7.32;;;-0.10;99.90;;;;;;5063772;28;20063;-68
2024/01/17 03:24:47;;;;;;;17.77;7.18;;;-0.10;99.90;;;;;;5062704;28;20052;-68
2024/01/17 03:27:13;;;;;;;17.17;7.18;;;-0.20;99.90;;;;;;5058449;28;20107;-67
2024/01/17 03:29:39;;;;;;;15.63;7.18;;;-0.10;99.90;;;;;;5061330;28;20052;-68
2024/01/17 03:32:05;;;;;;;15.98;7.63;;;-0.10;99.90;;;;;;5060748;28;20044;-68
2024/01/17 03:34:31;;;;;;;14.57;7.80;;;-0.10;99.90;;;;;;5061537;28;20075;-68
2024/01/17 03:36:57;;;;;;;17.08;8.30;;;0.00;99.90;;;;;;5061788;28;20076;-68
2024/01/17 03:39:22;;;;;;;16.60;7.70;;;0.20;99.90;;;;;;5061685;28;20099;-67
2024/01/17 03:41:48;;;;;;;14.85;7.85;;;-0.10;99.90;;;;;;5061683;28;20097;-68
2024/01/17 03:44:14;;;;;;;18.02;7.90;;;-0.10;99.90;;;;;;5061407;28;20064;-68
2024/01/17 03:46:40;;;;;;;19.20;7.75;;;0.30;99.90;;;;;;5039494;28;20151;-68
2024/01/17 03:49:05;;;;;;;16.02;7.80;;;-0.20;99.90;;;;;;5060050;28;20127;-68
2024/01/17 03:51:31;;;;;;;15.80;8.13;;;0.00;99.90;;;;;;5064091;28;20071;-68
2024/01/17 03:53:57;;;;;;;19.02;8.07;;;-0.20;99.90;;;;;;5061152;28;20040;-68
2024/01/17 03:56:23;;;;;;;17.30;8.25;;;-0.20;99.90;;;;;;5063810;28;20048;-68
2024/01/17 03:58:49;;;;;;;18.13;7.57;;;-0.20;99.90;;;;;;5062921;28;20036;-68
2024/01/17 04:01:15;;;;;;;16.58;7.15;;;-0.20;99.90;;;;;;5060434;28;20072;-68
2024/01/17 04:03:41;;;;;;;15.35;8.20;;;-0.20;99.90;;;;;;5063377;28;20708;-69
2024/01/17 04:06:06;;;;;;;20.55;8.85;;;-0.20;99.90;;;;;;5064099;28;20496;-64
2024/01/17 04:08:32;;;;;;;19.65;8.32;;;-0.20;99.90;;;;;;5062541;28;20080;-64
2024/01/17 04:10:59;;;;;;;17.80;8.45;;;0.30;99.90;;;;;;5061144;28;20133;-64
2024/01/17 04:13:24;;;;;;;15.90;7.55;;;-0.20;99.90;;;;;;5057279;28;20093;-64
2024/01/17 04:15:51;;;;;;;17.33;8.30;;;0.10;99.90;;;;;;5062081;28;20440;-64
2024/01/17 04:18:17;;;;;;;18.17;8.57;;;-0.20;99.90;;;;;;5062438;28;20049;-64
2024/01/17 04:20:42;;;;;;;18.67;7.90;;;-0.20;99.90;;;;;;5062145;28;20143;-64
2024/01/17 04:23:08;;;;;;;21.10;8.30;;;-0.20;99.90;;;;;;5061697;28;20044;-65
2024/01/17 04:25:35;;;;;;;16.83;7.88;;;0.10;99.90;;;;;;5063464;28;20079;-65
2024/01/17 04:28:08;;;;;;;16.15;8.30;;;-0.20;99.90;;;;;;5061885;28;20135;-64
2024/01/17 04:30:33;;;;;;;16.95;8.70;;;-0.20;99.90;;;;;;5059686;28;20060;-64
2024/01/17 04:33:00;;;;;;;16.42;8.50;;;-0.20;99.90;;;;;;5044271;28;20759;-64
2024/01/17 04:35:26;;;;;;;17.48;8.65;;;-0.20;99.90;;;;;;5044293;28;20036;-65
2024/01/17 04:37:53;;;;;;;19.73;8.77;;;-0.20;99.90;;;;;;5062474;28;20040;-65
2024/01/17 04:40:18;;;;;;;21.80;9.23;;;-0.20;99.90;;;;;;5062878;28;20044;-64
2024/01/17 04:42:48;;;;;;;16.55;8.48;;;-0.20;99.90;;;;;;5063120;28;20051;-64
2024/01/17 04:45:17;;;;;;;22.23;8.98;;;-0.30;99.90;;;;;;5060797;28;20051;-64
2024/01/17 04:47:43;;;;;;;18.65;8.57;;;-0.20;99.90;;;;;;5061657;28;20577;-64
2024/01/17 04:50:10;;;;;;;16.83;8.57;;;-0.20;99.90;;;;;;5060363;28;20076;-64
2024/01/17 04:52:36;;;;;;;17.73;9.15;;;-0.20;99.90;;;;;;5059377;28;20036;-64
2024/01/17 04:55:02;;;;;;;16.58;8.80;;;0.90;99.90;;;;;;5060175;28;20052;-64
2024/01/17 04:57:28;;;;;;;20.67;9.32;;;-0.30;99.90;;;;;;5061030;28;20127;-64
2024/01/17 04:59:54;;;;;;;20.02;9.02;;;-0.30;99.90;;;;;;5060661;28;20097;-64
2024/01/17 05:02:19;;;;;;;16.85;8.60;;;-0.30;99.90;;;;;;5061712;28;20044;-65
2024/01/17 05:04:45;;;;;;;22.67;9.35;;;-0.30;99.90;;;;;;5062500;28;20037;-65
2024/01/17 05:07:10;;;;;;;21.88;8.82;;;-0.30;99.90;;;;;;5060645;28;20055;-64
2024/01/17 05:09:37;;;;;;;17.58;8.90;;;-0.30;99.90;;;;;;5060479;28;20045;-64
2024/01/17 05:12:04;;;;;;;17.63;8.93;;;-0.30;99.90;;;;;;5060988;28;20136;-65
2024/01/17 05:14:30;;;;;;;18.40;8.75;;;-0.40;99.90;;;;;;5064382;28;20047;-64
2024/01/17 05:16:56;;;;;;;21.42;9.65;;;-0.40;99.90;;;;;;5064579;28;20040;-64
2024/01/17 05:19:22;;;;;;;17.52;8.60;;;-0.40;99.90;;;;;;5065165;28;20048;-64
2024/01/17 05:21:48;;;;;;;21.48;8.80;;;-0.40;99.90;;;;;;5066619;28;20040;-64
2024/01/17 05:24:14;;;;;;;16.70;8.52;;;-0.40;99.90;;;;;;5066030;28;20036;-64
2024/01/17 05:26:40;;;;;;;17.40;8.32;;;-0.40;99.90;;;;;;5065001;28;20037;-64
2024/01/17 05:29:06;;;;;;;16.77;8.60;;;-0.20;99.90;;;;;;5064981;28;20036;-64
2024/01/17 05:31:32;;;;;;;17.27;8.98;;;-0.40;99.90;;;;;;5066554;28;20040;-64
2024/01/17 05:33:57;;;;;;;19.92;8.15;;;-0.40;99.90;;;;;;5065190;28;20128;-64
2024/01/17 05:36:23;;;;;;;17.23;8.75;;;-0.40;99.90;;;;;;5065019;28;20041;-64
2024/01/17 05:38:49;;;;;;;16.92;8.82;;;-0.40;99.90;;;;;;5065223;28;20045;-64
2024/01/17 05:41:15;;;;;;;21.45;9.25;;;-0.50;99.90;;;;;;5066602;28;20048;-64
2024/01/17 05:43:40;;;;;;;18.60;8.05;;;-0.50;99.90;;;;;;5065016;28;20043;-64
2024/01/17 05:46:07;;;;;;;18.33;8.05;;;-0.50;99.90;;;;;;5064355;28;20056;-65
2024/01/17 05:48:33;;;;;;;19.20;9.13;;;-0.50;99.90;;;;;;5063629;28;20044;-64
2024/01/17 05:50:59;;;;;;;19.58;8.70;;;-0.50;99.90;;;;;;5066805;28;20032;-64
2024/01/17 05:53:25;;;;;;;17.00;8.25;;;-0.50;99.90;;;;;;5064943;28;20055;-64
2024/01/17 05:55:53;;;;;;;16.33;7.97;;;-0.50;99.90;;;;;;5064213;28;20044;-64
2024/01/17 05:58:19;;;;;;;17.58;9.05;;;-0.60;99.90;;;;;;5061487;28;20127;-64
2024/01/17 06:00:45;;;;;;;16.33;7.68;;;-0.60;99.90;;;;;;5043216;28;20063;-64
2024/01/17 06:03:11;;;;;;;17.92;8.73;;;-0.60;99.90;;;;;;5044577;28;20044;-64
2024/01/17 06:05:37;;;;;;;18.85;9.15;;;-0.60;99.90;;;;;;5063615;28;20036;-64
2024/01/17 06:08:02;;;;;;;20.52;9.18;;;-0.50;99.90;;;;;;5064830;28;20083;-64
2024/01/17 06:10:29;;;;;;;17.85;8.07;;;-0.70;99.90;;;;;;5061688;28;20037;-64
2024/01/17 06:12:55;;;;;;;17.40;8.18;;;-0.70;99.90;;;;;;5063231;28;20045;-64
2024/01/17 06:15:21;;;;;;;17.00;8.25;;;-0.70;99.90;;;;;;5064371;28;20122;-65
2024/01/17 06:17:46;;;;;;;18.00;8.43;;;-0.70;99.90;;;;;;5064714;28;20048;-64
2024/01/17 06:20:12;;;;;;;18.55;8.95;;;-0.70;99.90;;;;;;5064432;28;20129;-64
2024/01/17 06:22:38;;;;;;;21.40;9.40;;;-0.70;99.90;;;;;;5063611;28;20107;-64
2024/01/17 06:25:08;;;;;;;18.95;8.90;;;-0.70;99.90;;;;;;5058382;28;20029;-64
2024/01/17 06:27:34;;;;;;;16.67;8.55;;;-0.70;99.90;;;;;;5042520;28;20128;-64
2024/01/17 06:29:59;;;;;;;17.38;8.98;;;-1.80;99.90;;;;;;5063879;28;20070;-65
2024/01/17 06:32:25;;;;;;;17.65;9.15;;;-0.80;99.90;;;;;;5063863;28;20040;-64
2024/01/17 06:34:51;;;;;;;17.42;8.82;;;-0.80;99.90;;;;;;5060458;28;20045;-63
2024/01/17 06:37:17;;;;;;;17.05;9.10;;;-0.80;99.90;;;;;;5057530;28;20055;-64
2024/01/17 06:39:44;;;;;;;18.48;8.52;;;-0.80;99.90;;;;;;5058188;28;20053;-68
2024/01/17 06:42:10;;;;;;;15.48;7.93;;;-0.90;99.90;;;;;;5057345;28;20567;-67
2024/01/17 06:44:36;;;;;;;19.50;9.07;;;-0.80;99.90;;;;;;5062475;28;20825;-67
2024/01/17 06:47:03;;;;;;;22.48;9.30;;;-0.70;99.90;;;;;;5055178;28;20048;-67
2024/01/17 06:49:29;;;;;;;19.92;9.18;;;-0.80;99.90;;;;;;5060282;28;20123;-66
2024/01/17 06:51:58;;;;;;;15.60;8.27;;;-0.90;99.90;;;;;;5058673;28;20055;-67
2024/01/17 06:54:23;;;;;;;20.98;9.43;;;-0.90;99.90;;;;;;5057317;28;20050;-67
2024/01/17 06:56:49;;;;;;;18.70;9.07;;;-0.90;99.90;;;;;;5060475;28;20051;-64
2024/01/17 06:59:16;;;;;;;21.55;8.77;;;-0.90;99.90;;;;;;5058446;28;20043;-63
2024/01/17 07:01:42;;;;;;;18.50;9.05;;;-0.90;99.90;;;;;;5041468;28;20540;-64
2024/01/17 07:04:08;;;;;;;15.18;8.95;;;-0.90;99.90;;;;;;5055248;28;20044;-64
2024/01/17 07:06:34;;;;;;;15.63;9.07;;;-0.10;99.90;;;;;;5057110;28;20041;-64
2024/01/17 07:09:00;;;;;;;16.85;8.60;;;-0.40;99.90;;;;;;5062565;28;20049;-65
2024/01/17 07:11:25;;;;;;;16.35;8.63;;;-0.90;99.90;;;;;;5060169;28;20557;-65
2024/01/17 07:13:51;;;;;;;19.67;8.70;;;-0.90;99.90;;;;;;5058301;28;20131;-64
2024/01/17 07:16:17;;;;;;;23.15;9.18;;;0.10;99.90;;;;;;5059502;28;20119;-64
2024/01/17 07:18:43;;;;;;;17.33;9.05;;;-0.90;99.90;;;;;;5062347;28;20059;-64
2024/01/17 07:21:08;;;;;;;17.35;9.13;;;-0.90;99.90;;;;;;5055374;28;20749;-64
2024/01/17 07:23:36;;;;;;;17.65;8.93;;;-0.90;99.90;;;;;;5057090;28;20044;-64
2024/01/17 07:26:03;;;;;;;19.13;8.98;;;-0.90;99.90;;;;;;5056612;28;20131;-64
2024/01/17 07:28:29;;;;;;;14.85;7.93;;;-0.90;99.90;;;;;;5040216;28;20053;-64
2024/01/17 07:30:55;;;;;;;22.70;9.23;;;-1.00;99.90;;;;;;5072335;28;20059;-64
2024/01/17 07:33:21;;;;;;;19.40;8.70;;;-1.00;99.90;;;;;;5053556;28;20040;-64
2024/01/17 07:35:47;;;;;;;13.85;8.43;;;-1.00;99.90;;;;;;5037594;28;20845;-64
2024/01/17 07:38:14;;;;;;;18.50;8.35;;;-0.70;99.90;;;;;;5051858;28;20060;-64
2024/01/17 07:40:41;;;;;;;19.30;8.25;;;-1.00;99.90;;;;;;5056146;28;20053;-64
2024/01/17 07:43:07;;;;;;;18.67;8.50;;;-1.00;99.90;;;;;;5048884;28;20048;-64
2024/01/17 07:45:33;;;;;;;17.92;8.10;;;-1.10;99.90;;;;;;5043693;28;20040;-64
2024/01/17 07:47:59;;;;;;;14.93;8.63;;;-0.50;99.90;;;;;;5039318;28;20048;-64
2024/01/17 07:50:24;;;;;;;16.60;8.10;;;-0.90;99.90;;;;;;5045438;28;20820;-64
2024/01/17 07:52:50;;;;;;;17.08;8.88;;;-1.10;99.90;;;;;;5047544;28;20068;-64
2024/01/17 07:55:16;;;;;;;17.10;8.77;;;-1.10;99.90;;;;;;5048319;28;20747;-64
2024/01/17 07:57:42;;;;;;;17.65;8.68;;;-1.20;99.90;;;;;;5045353;28;20052;-65
2024/01/17 08:00:08;;;;;;;18.80;8.68;;;-1.20;99.90;;;;;;5046585;28;20044;-64
2024/01/17 08:02:34;;;;;;;16.58;8.32;;;-1.20;99.90;;;;;;5048851;28;20048;-64
2024/01/17 08:05:00;;;;;;;19.38;8.57;;;-1.20;99.90;;;;;;5048692;28;20489;-65
2024/01/17 08:07:27;;;;;;;17.85;8.38;;;-1.20;99.90;;;;;;5050466;28;20206;-64
2024/01/17 08:09:52;;;;;;;20.13;8.30;;;-1.20;99.90;;;;;;5049952;28;20287;-65
2024/01/17 08:12:19;;;;;;;14.32;8.10;;;-0.60;99.90;;;;;;5045753;28;20086;-64
2024/01/17 08:14:48;;;;;;;19.95;9.18;;;-1.30;99.90;;;;;;5046487;28;20080;-64
2024/01/17 08:17:16;;;;;;;19.05;8.77;;;-1.20;99.90;;;;;;5030976;28;20123;-64
2024/01/17 08:19:42;;;;;;;15.63;8.90;;;-1.30;99.90;;;;;;5079601;28;20059;-64
2024/01/17 08:22:09;;;;;;;19.63;8.35;;;-1.30;99.90;;;;;;5031231;28;20052;-64
2024/01/17 08:24:35;;;;;;;14.80;7.75;;;-1.20;99.90;;;;;;5047136;28;20078;-64
2024/01/17 08:27:01;;;;;;;17.33;7.80;;;-1.30;99.90;;;;;;5030581;28;20084;-64
2024/01/17 08:29:27;;;;;;;19.92;8.98;;;-1.30;99.90;;;;;;5049881;28;20044;-64
2024/01/17 08:31:52;;;;;;;20.48;8.35;;;-1.30;99.90;;;;;;5049969;28;20382;-64
2024/01/17 08:34:20;;;;;;;17.92;8.55;;;-1.30;99.90;;;;;;5044199;28;20132;-64
2024/01/17 08:36:47;;;;;;;16.10;8.40;;;-1.30;99.90;;;;;;5046758;28;20041;-64
2024/01/17 08:39:12;;;;;;;17.63;8.70;;;-1.30;99.90;;;;;;5048073;28;20059;-64
2024/01/17 08:41:41;;;;;;;19.40;8.48;;;-1.30;99.90;;;;;;5032208;28;20036;-65
2024/01/17 08:44:07;;;;;;;17.95;8.18;;;-1.20;99.90;;;;;;5042967;28;20614;-64
2024/01/17 08:46:40;;;;;;;16.98;8.35;;;-1.30;99.90;;;;;;5044328;28;20184;-64
2024/01/17 08:49:06;;;;;;;18.65;7.97;;;-0.80;99.90;;;;;;5027656;28;20049;-65
2024/01/17 08:51:32;;;;;;;16.67;8.23;;;-1.30;99.90;;;;;;5044705;28;20711;-65
2024/01/17 08:53:58;;;;;;;18.10;8.60;;;-1.30;99.90;;;;;;5044117;28;20469;-64
2024/01/17 08:56:24;;;;;;;16.13;8.13;;;-1.30;99.90;;;;;;5043814;28;21755;-64
2024/01/17 08:58:53;;;;;;;15.32;8.27;;;-0.70;99.90;;;;;;5043996;28;20044;-64
2024/01/17 09:01:19;;;;;;;16.40;8.50;;;-1.30;99.90;;;;;;5044281;28;20052;-64
2024/01/17 09:03:44;;;;;;;15.05;8.05;;;-1.30;99.90;;;;;;5044315;28;20049;-65
2024/01/17 09:06:11;;;;;;;17.00;8.63;;;-1.10;99.90;;;;;;5044478;28;20044;-64
2024/01/17 09:08:37;;;;;;;20.48;8.60;;;-1.30;99.90;;;;;;5031248;28;20036;-64
2024/01/17 09:11:05;;;;;;;18.35;7.90;;;-1.30;99.90;;;;;;5049356;28;20067;-64
2024/01/17 09:13:31;;;;;;;18.55;7.97;;;-1.30;99.90;;;;;;5048411;28;20044;-65
2024/01/17 09:15:57;;;;;;;18.27;8.23;;;-1.30;99.90;;;;;;5045216;28;20048;-64
2024/01/17 09:18:23;;;;;;;14.80;8.30;;;-1.20;99.90;;;;;;5045456;28;20059;-64
2024/01/17 09:20:49;;;;;;;16.23;7.57;;;-1.20;99.90;;;;;;5032063;28;20128;-64
2024/01/17 09:23:14;;;;;;;15.20;8.07;;;-1.20;99.90;;;;;;5044192;28;20409;-65
2024/01/17 09:25:40;;;;;;;16.58;7.75;;;-1.20;99.90;;;;;;5045377;28;20369;-68
2024/01/17 09:28:06;;;;;;;15.82;8.07;;;-1.20;99.90;;;;;;5042995;28;20216;-64
2024/01/17 09:30:32;;;;;;;20.73;8.13;;;-1.20;99.90;;;;;;5046914;28;20083;-64
2024/01/17 09:32:58;;;;;;;15.55;7.65;;;-1.20;99.90;;;;;;5049795;28;20139;-64
2024/01/17 09:35:23;;;;;;;16.77;8.20;;;-1.20;99.90;;;;;;5044504;28;20045;-64
2024/01/17 09:37:49;;;;;;;15.32;7.65;;;-1.20;99.90;;;;;;5049204;28;20033;-64
2024/01/17 09:40:15;;;;;;;15.85;7.85;;;-1.20;99.90;;;;;;5047290;28;20059;-64
2024/01/17 09:42:40;;;;;;;16.98;7.60;;;-1.10;99.90;;;;;;5059824;28;20642;-64
2024/01/17 09:45:09;;;;;;;16.52;7.72;;;-1.10;99.90;;;;;;5043483;28;20131;-65
2024/01/17 09:47:36;;;;;;;15.32;7.43;;;-1.10;99.90;;;;;;5046736;28;20350;-65
2024/01/17 09:50:02;;;;;;;16.55;7.53;;;-1.10;99.90;;;;;;5046482;28;20908;-65
2024/01/17 09:52:32;;;;;;;17.52;7.82;;;-1.10;99.90;;;;;;5076996;28;20063;-64
2024/01/17 09:55:00;;;;;;;16.98;8.05;;;-1.10;99.90;;;;;;5041906;28;20386;-64
2024/01/17 09:57:30;;;;;;;19.50;8.43;;;-1.10;99.90;;;;;;5048359;28;20048;-64
2024/01/17 10:00:09;;;;;;;16.30;8.32;;;-1.10;99.90;;;;;;5051115;28;20052;-64
2024/01/17 10:02:38;;;;;;;16.60;7.57;;;-1.10;99.90;;;;;;5051245;28;20052;-64
2024/01/17 10:05:09;;;;;;;16.42;8.43;;;-1.10;99.90;;;;;;5049174;28;20495;-64
2024/01/17 10:07:38;;;;;;;16.65;7.57;;;-1.10;99.90;;;;;;5035281;28;20044;-64
2024/01/17 10:10:05;;;;;;;15.90;7.15;;;-1.10;99.90;;;;;;5033422;28;20056;-64
2024/01/17 10:12:31;;;;;;;18.73;8.07;;;-1.00;99.90;;;;;;5035056;28;20056;-64
2024/01/17 10:14:57;;;;;;;15.13;7.32;;;-1.00;99.90;;;;;;5048520;28;20040;-64
2024/01/17 10:17:22;;;;;;;16.77;6.72;;;-1.00;99.90;;;;;;5051698;28;20210;-64
2024/01/17 10:19:48;;;;;;;17.67;6.93;;;-1.00;99.90;;;;;;5052559;28;20040;-64
2024/01/17 10:22:14;;;;;;;15.30;7.40;;;-1.00;99.90;;;;;;5040130;28;20564;-64
2024/01/17 10:24:40;;;;;;;17.40;7.18;;;-0.90;99.90;;;;;;5045127;28;20405;-64
2024/01/17 10:27:06;;;;;;;13.23;6.25;;;-0.60;99.90;;;;;;5050978;28;20044;-64
2024/01/17 10:29:37;;;;;;;15.88;6.88;;;-0.90;99.90;;;;;;5050619;28;20036;-64
2024/01/17 10:32:03;;;;;;;20.63;8.63;;;-0.90;99.90;;;;;;5051678;28;20043;-64
2024/01/17 10:34:32;;;;;;;18.33;7.75;;;-0.90;99.90;;;;;;5032418;28;20044;-65
2024/01/17 10:36:58;;;;;;;13.75;7.07;;;-0.90;99.90;;;;;;5051949;28;20044;-64
2024/01/17 10:39:28;;;;;;;16.60;6.90;;;-0.40;99.90;;;;;;5032032;28;20702;-63
2024/01/17 10:41:56;;;;;;;14.27;8.43;;;-0.90;99.90;;;;;;5050100;28;20103;-64
2024/01/17 10:44:22;;;;;;;16.08;6.97;;;-0.90;99.90;;;;;;5030954;28;20049;-64
2024/01/17 10:46:52;;;;;;;18.02;7.22;;;-0.80;99.90;;;;;;5050730;28;20620;-64
2024/01/17 10:49:18;;;;;;;17.02;7.07;;;-0.80;99.90;;;;;;5048900;28;20099;-64
2024/01/17 10:52:09;;;;;;;13.63;6.93;;;-0.60;99.90;;;;;;5049054;28;20044;-65
2024/01/17 10:54:51;;;;;;;13.43;6.78;;;-0.80;99.90;;;;;;5078515;28;20448;-64
2024/01/17 10:57:19;;;;;;;15.18;7.10;;;-0.80;99.90;;;;;;5033036;28;20230;-63
2024/01/17 10:59:49;;;;;;;12.98;6.50;;;-0.80;99.90;;;;;;5035355;28;20036;-64
2024/01/17 11:02:21;;;;;;;18.08;6.80;;;-0.30;99.90;;;;;;5052328;28;20070;-64
2024/01/17 11:05:03;;;;;;;14.93;6.72;;;-0.70;99.90;;;;;;5069548;28;20040;-64
2024/01/17 11:07:30;;;;;;;13.52;7.50;;;-0.70;99.90;;;;;;5059106;28;20032;-64
2024/01/17 11:10:00;;;;;;;15.70;6.82;;;-0.70;99.90;;;;;;5053359;28;20602;-64
2024/01/17 11:12:27;;;;;;;15.80;7.05;;;-0.70;99.90;;;;;;5057777;28;20045;-64
2024/01/17 11:14:57;;;;;;;15.88;6.72;;;-0.60;99.90;;;;;;5053867;28;20048;-64
2024/01/17 11:17:24;;;;;;;14.52;6.68;;;-0.60;99.90;;;;;;5054791;28;20048;-64
2024/01/17 11:19:52;;;;;;;14.95;6.60;;;-0.60;99.90;;;;;;5059662;28;20067;-64
2024/01/17 11:22:18;;;;;;;14.93;7.43;;;-0.30;99.90;;;;;;5059526;28;20052;-64
2024/01/17 11:25:16;;;;;;;12.98;6.57;;;-0.50;99.90;;;;;;5041798;28;20061;-65
2024/01/17 11:27:42;;;;;;;15.88;7.47;;;-0.50;99.90;;;;;;5088500;28;20079;-64
2024/01/17 11:30:26;;;;;;;17.25;6.95;;;-0.20;99.90;;;;;;5073503;28;20048;-64
2024/01/17 11:33:13;;;;;;;13.40;7.05;;;-0.50;99.90;;;;;;5061382;28;20047;-64
2024/01/17 11:35:53;;;;;;;15.52;6.75;;;-0.50;99.90;;;;;;5075096;28;20098;-64
2024/01/17 11:38:22;;;;;;;15.32;6.78;;;-0.50;99.90;;;;;;5055645;28;20048;-64
2024/01/17 11:40:48;;;;;;;16.58;6.65;;;-0.40;99.90;;;;;;5055141;28;20086;-64
2024/01/17 11:43:15;;;;;;;16.23;7.20;;;-0.40;99.90;;;;;;5050507;28;20049;-65
2024/01/17 11:45:41;;;;;;;18.50;7.32;;;-0.40;99.90;;;;;;5054155;28;20044;-64
2024/01/17 11:48:22;;;;;;;15.45;6.47;;;-0.40;99.90;;;;;;5058567;28;20040;-65
2024/01/17 11:51:07;;;;;;;16.45;6.45;;;-0.40;99.90;;;;;;5058788;28;20464;-64
2024/01/17 11:53:35;;;;;;;15.35;6.50;;;-0.40;99.90;;;;;;5057396;28;20482;-65
2024/01/17 11:56:03;;;;;;;12.32;6.07;;;0.20;99.90;;;;;;5039288;28;20060;-64
2024/01/17 11:58:42;;;;;;;18.10;6.28;;;-0.40;99.90;;;;;;5060035;28;20044;-64
2024/01/17 12:01:17;;;;;;;18.63;6.80;;;-0.40;99.90;;;;;;5059824;28;20056;-64
2024/01/17 12:03:43;;;;;;;12.15;6.55;;;-0.40;99.90;;;;;;5060137;28;20765;-65
2024/01/17 12:06:11;;;;;;;14.13;5.88;;;-0.40;99.90;;;;;;5058313;28;20074;-65
2024/01/17 12:08:37;;;;;;;13.27;5.75;;;-0.40;99.90;;;;;;5074397;28;20579;-65
2024/01/17 12:11:04;;;;;;;12.90;7.07;;;-0.30;99.90;;;;;;5059201;28;20044;-64
2024/01/17 12:13:29;;;;;;;13.45;5.72;;;-0.30;99.90;;;;;;5056855;28;20052;-64
2024/01/17 12:15:57;;;;;;;13.38;6.68;;;-0.30;99.90;;;;;;5057074;28;20044;-64
2024/01/17 12:18:24;;;;;;;12.48;6.10;;;-0.30;99.90;;;;;;5088359;28;20048;-64
2024/01/17 12:20:51;;;;;;;16.85;6.40;;;-0.40;99.90;;;;;;5043578;28;20186;-64
2024/01/17 12:23:21;;;;;;;14.48;6.80;;;-0.40;99.90;;;;;;5058990;28;20036;-64
2024/01/17 12:25:48;;;;;;;13.80;6.28;;;-0.30;99.90;;;;;;5070376;28;20048;-64
2024/01/17 12:28:31;;;;;;;12.02;6.35;;;-0.40;99.90;;;;;;5055165;28;20525;-64
2024/01/17 12:31:02;;;;;;;18.20;6.85;;;-0.30;99.90;;;;;;5060862;28;20505;-65
2024/01/17 12:33:34;;;;;;;13.25;6.30;;;0.80;99.90;;;;;;5059585;28;20044;-64
2024/01/17 12:36:00;;;;;;;13.05;6.63;;;-0.30;99.90;;;;;;5041531;28;20405;-64
2024/01/17 12:38:34;;;;;;;14.95;7.03;;;-0.30;99.90;;;;;;5057987;28;20105;-65